sensor_id;sensor_type;location;lat;lon;timestamp;pressure;altitude;pressure_sealevel;temperature;humidity
36828;BME280;22766;48.042;11.192;2023-05-16T00:01:44;94649.19;;;8.12;100.00
36828;BME280;22766;48.042;11.192;2023-05-16T00:04:11;94644.41;;;8.17;100.00
36828;BME280;22766;48.042;11.192;2023-05-16T00:06:39;94644.78;;;8.22;100.00
36828;BME280;22766;48.042;11.192;2023-05-16T00:09:05;94640.75;;;8.19;100.00
36828;BME280;22766;48.042;11.192;2023-05-16T00:11:32;94641.97;;;8.15;100.00
36828;BME280;22766;48.042;11.192;2023-05-16T00:13:59;94649.94;;;8.22;100.00
36828;BME280;22766;48.042;11.192;2023-05-16T00:16:27;94645.59;;;8.22;100.00
36828;BME280;22766;48.042;11.192;2023-05-16T00:18:55;94643.56;;;8.26;100.00
36828;BME280;22766;48.042;11.192;2023-05-16T00:21:26;94639.38;;;8.25;100.00
36828;BME280;22766;48.042;11.192;2023-05-16T00:23:53;94636.81;;;8.25;100.00
36828;BME280;22766;48.042;11.192;2023-05-16T00:26:20;94635.88;;;8.26;100.00
36828;BME280;22766;48.042;11.192;2023-05-16T00:28:47;94639.09;;;8.28;100.00
36828;BME280;22766;48.042;11.192;2023-05-16T00:31:13;94634.47;;;8.31;100.00
36828;BME280;22766;48.042;11.192;2023-05-16T00:33:40;94636.22;;;8.31;100.00
36828;BME280;22766;48.042;11.192;2023-05-16T00:36:07;94637.97;;;8.30;100.00
36828;BME280;22766;48.042;11.192;2023-05-16T00:38:34;94627.34;;;8.25;100.00
36828;BME280;22766;48.042;11.192;2023-05-16T00:41:00;94627.19;;;8.44;100.00
36828;BME280;22766;48.042;11.192;2023-05-16T00:43:27;94622.31;;;8.59;100.00
36828;BME280;22766;48.042;11.192;2023-05-16T00:45:54;94627.19;;;8.44;100.00
36828;BME280;22766;48.042;11.192;2023-05-16T00:48:23;94628.50;;;8.31;100.00
36828;BME280;22766;48.042;11.192;2023-05-16T00:50:50;94625.81;;;8.23;100.00
36828;BME280;22766;48.042;11.192;2023-05-16T00:53:21;94623.03;;;8.16;100.00
36828;BME280;22766;48.042;11.192;2023-05-16T00:55:48;94621.72;;;8.12;100.00
36828;BME280;22766;48.042;11.192;2023-05-16T00:58:16;94618.91;;;8.06;100.00
36828;BME280;22766;48.042;11.192;2023-05-16T01:00:44;94617.47;;;8.03;100.00
36828;BME280;22766;48.042;11.192;2023-05-16T01:03:14;94625.44;;;8.00;100.00
36828;BME280;22766;48.042;11.192;2023-05-16T01:05:41;94617.06;;;7.98;100.00
36828;BME280;22766;48.042;11.192;2023-05-16T01:08:08;94615.97;;;8.01;100.00
36828;BME280;22766;48.042;11.192;2023-05-16T01:10:43;94620.16;;;8.02;100.00
36828;BME280;22766;48.042;11.192;2023-05-16T01:13:30;94622.72;;;8.02;100.00
36828;BME280;22766;48.042;11.192;2023-05-16T01:16:09;94624.50;;;8.01;100.00
36828;BME280;22766;48.042;11.192;2023-05-16T01:18:51;94626.25;;;8.01;100.00
36828;BME280;22766;48.042;11.192;2023-05-16T01:24:18;94632.88;;;8.03;100.00
36828;BME280;22766;48.042;11.192;2023-05-16T01:26:48;94623.78;;;8.09;100.00
36828;BME280;22766;48.042;11.192;2023-05-16T01:29:17;94620.97;;;8.20;100.00
36828;BME280;22766;48.042;11.192;2023-05-16T01:31:44;94613.94;;;8.22;100.00
36828;BME280;22766;48.042;11.192;2023-05-16T01:34:11;94611.50;;;8.20;100.00
36828;BME280;22766;48.042;11.192;2023-05-16T01:36:43;94614.28;;;8.09;100.00
36828;BME280;22766;48.042;11.192;2023-05-16T01:39:21;94605.03;;;7.99;100.00
36828;BME280;22766;48.042;11.192;2023-05-16T01:42:02;94605.75;;;7.91;100.00
36828;BME280;22766;48.042;11.192;2023-05-16T01:47:16;94609.25;;;7.73;100.00
36828;BME280;22766;48.042;11.192;2023-05-16T01:50:09;94607.94;;;7.69;100.00
36828;BME280;22766;48.042;11.192;2023-05-16T01:52:59;94609.53;;;7.70;100.00
36828;BME280;22766;48.042;11.192;2023-05-16T01:55:29;94605.50;;;7.67;100.00
36828;BME280;22766;48.042;11.192;2023-05-16T01:57:58;94607.63;;;7.72;100.00
36828;BME280;22766;48.042;11.192;2023-05-16T02:00:25;94599.41;;;7.68;100.00
36828;BME280;22766;48.042;11.192;2023-05-16T02:02:52;94597.09;;;7.75;100.00
36828;BME280;22766;48.042;11.192;2023-05-16T02:05:18;94591.28;;;7.73;100.00
36828;BME280;22766;48.042;11.192;2023-05-16T02:07:45;94598.41;;;7.79;100.00
36828;BME280;22766;48.042;11.192;2023-05-16T02:10:12;94596.13;;;7.76;100.00
36828;BME280;22766;48.042;11.192;2023-05-16T02:12:39;94603.88;;;7.66;100.00
36828;BME280;22766;48.042;11.192;2023-05-16T02:15:06;94594.41;;;7.67;100.00
36828;BME280;22766;48.042;11.192;2023-05-16T02:17:33;94599.47;;;7.58;100.00
36828;BME280;22766;48.042;11.192;2023-05-16T02:20:00;94589.75;;;7.52;100.00
36828;BME280;22766;48.042;11.192;2023-05-16T02:22:32;94600.69;;;7.54;100.00
36828;BME280;22766;48.042;11.192;2023-05-16T02:25:00;94599.31;;;7.60;100.00
36828;BME280;22766;48.042;11.192;2023-05-16T02:27:28;94598.22;;;7.63;100.00
36828;BME280;22766;48.042;11.192;2023-05-16T02:29:55;94601.31;;;7.66;100.00
36828;BME280;22766;48.042;11.192;2023-05-16T02:32:22;94605.06;;;7.72;100.00
36828;BME280;22766;48.042;11.192;2023-05-16T02:34:50;94602.28;;;7.83;100.00
36828;BME280;22766;48.042;11.192;2023-05-16T02:37:17;94601.50;;;7.82;100.00
36828;BME280;22766;48.042;11.192;2023-05-16T02:39:44;94598.69;;;7.76;100.00
36828;BME280;22766;48.042;11.192;2023-05-16T02:42:11;94601.41;;;7.74;100.00
36828;BME280;22766;48.042;11.192;2023-05-16T02:44:37;94609.25;;;7.73;100.00
36828;BME280;22766;48.042;11.192;2023-05-16T02:47:04;94610.88;;;7.74;100.00
36828;BME280;22766;48.042;11.192;2023-05-16T02:49:31;94609.13;;;7.74;100.00
36828;BME280;22766;48.042;11.192;2023-05-16T02:51:59;94609.25;;;7.73;100.00
36828;BME280;22766;48.042;11.192;2023-05-16T02:54:25;94602.78;;;7.69;100.00
36828;BME280;22766;48.042;11.192;2023-05-16T02:56:52;94610.09;;;7.64;100.00
36828;BME280;22766;48.042;11.192;2023-05-16T02:59:19;94606.31;;;7.68;100.00
36828;BME280;22766;48.042;11.192;2023-05-16T03:01:46;94609.69;;;7.68;100.00
36828;BME280;22766;48.042;11.192;2023-05-16T03:04:12;94608.09;;;7.67;100.00
36828;BME280;22766;48.042;11.192;2023-05-16T03:06:39;94605.13;;;7.62;100.00
36828;BME280;22766;48.042;11.192;2023-05-16T03:09:06;94603.13;;;7.56;100.00
36828;BME280;22766;48.042;11.192;2023-05-16T03:11:33;94609.59;;;7.60;100.00
36828;BME280;22766;48.042;11.192;2023-05-16T03:14:02;94606.50;;;7.56;100.00
36828;BME280;22766;48.042;11.192;2023-05-16T03:16:28;94608.25;;;7.56;100.00
36828;BME280;22766;48.042;11.192;2023-05-16T03:18:56;94602.84;;;7.59;100.00
36828;BME280;22766;48.042;11.192;2023-05-16T03:21:22;94600.44;;;7.57;100.00
36828;BME280;22766;48.042;11.192;2023-05-16T03:23:49;94596.19;;;7.66;100.00
36828;BME280;22766;48.042;11.192;2023-05-16T03:26:16;94592.94;;;7.64;100.00
36828;BME280;22766;48.042;11.192;2023-05-16T03:28:42;94593.41;;;7.60;100.00
36828;BME280;22766;48.042;11.192;2023-05-16T03:31:09;94592.84;;;7.56;100.00
36828;BME280;22766;48.042;11.192;2023-05-16T03:33:36;94600.84;;;7.53;100.00
36828;BME280;22766;48.042;11.192;2023-05-16T03:36:03;94598.03;;;7.46;100.00
36828;BME280;22766;48.042;11.192;2023-05-16T03:38:30;94596.84;;;7.41;100.00
36828;BME280;22766;48.042;11.192;2023-05-16T03:40:57;94596.47;;;7.36;100.00
36828;BME280;22766;48.042;11.192;2023-05-16T03:43:24;94598.09;;;7.37;100.00
36828;BME280;22766;48.042;11.192;2023-05-16T03:45:51;94596.22;;;7.29;100.00
36828;BME280;22766;48.042;11.192;2023-05-16T03:48:17;94601.50;;;7.28;100.00
36828;BME280;22766;48.042;11.192;2023-05-16T03:50:44;94602.19;;;7.30;100.00
36828;BME280;22766;48.042;11.192;2023-05-16T03:53:11;94594.63;;;7.28;100.00
36828;BME280;22766;48.042;11.192;2023-05-16T03:55:38;94598.78;;;7.29;100.00
36828;BME280;22766;48.042;11.192;2023-05-16T03:58:04;94595.84;;;7.24;100.00
36828;BME280;22766;48.042;11.192;2023-05-16T04:00:31;94601.81;;;7.25;100.00
36828;BME280;22766;48.042;11.192;2023-05-16T04:02:59;94600.06;;;7.25;100.00
36828;BME280;22766;48.042;11.192;2023-05-16T04:05:26;94600.16;;;7.24;100.00
36828;BME280;22766;48.042;11.192;2023-05-16T04:07:54;94603.03;;;7.21;100.00
36828;BME280;22766;48.042;11.192;2023-05-16T04:10:20;94602.88;;;7.22;100.00
36828;BME280;22766;48.042;11.192;2023-05-16T04:12:47;94605.91;;;7.18;100.00
36828;BME280;22766;48.042;11.192;2023-05-16T04:15:14;94597.78;;;7.13;100.00
36828;BME280;22766;48.042;11.192;2023-05-16T04:17:41;94598.19;;;7.18;100.00
36828;BME280;22766;48.042;11.192;2023-05-16T04:20:08;94596.28;;;7.20;100.00
36828;BME280;22766;48.042;11.192;2023-05-16T04:22:34;94599.75;;;7.28;100.00
36828;BME280;22766;48.042;11.192;2023-05-16T04:25:01;94594.56;;;7.38;100.00
36828;BME280;22766;48.042;11.192;2023-05-16T04:27:27;94603.97;;;7.47;100.00
36828;BME280;22766;48.042;11.192;2023-05-16T04:29:56;94605.56;;;7.57;100.00
36828;BME280;22766;48.042;11.192;2023-05-16T04:32:22;94601.16;;;7.68;100.00
36828;BME280;22766;48.042;11.192;2023-05-16T04:34:49;94609.25;;;7.73;100.00
36828;BME280;22766;48.042;11.192;2023-05-16T04:37:19;94600.16;;;7.78;100.00
36828;BME280;22766;48.042;11.192;2023-05-16T04:39:46;94595.41;;;7.83;100.00
36828;BME280;22766;48.042;11.192;2023-05-16T04:42:13;94604.94;;;7.91;100.00
36828;BME280;22766;48.042;11.192;2023-05-16T04:44:39;94590.13;;;8.02;100.00
36828;BME280;22766;48.042;11.192;2023-05-16T04:47:07;94597.41;;;8.07;100.00
36828;BME280;22766;48.042;11.192;2023-05-16T04:49:34;94596.94;;;8.11;100.00
36828;BME280;22766;48.042;11.192;2023-05-16T04:52:01;94601.66;;;8.16;100.00
36828;BME280;22766;48.042;11.192;2023-05-16T04:54:28;94602.63;;;8.15;100.00
36828;BME280;22766;48.042;11.192;2023-05-16T04:56:54;94601.22;;;8.20;100.00
36828;BME280;22766;48.042;11.192;2023-05-16T04:59:22;94605.00;;;8.26;100.00
36828;BME280;22766;48.042;11.192;2023-05-16T05:01:49;94610.06;;;8.35;100.00
36828;BME280;22766;48.042;11.192;2023-05-16T05:04:16;94607.69;;;8.42;100.00
36828;BME280;22766;48.042;11.192;2023-05-16T05:06:43;94607.09;;;8.48;100.00
36828;BME280;22766;48.042;11.192;2023-05-16T05:09:09;94606.19;;;8.57;100.00
36828;BME280;22766;48.042;11.192;2023-05-16T05:11:36;94608.84;;;8.65;100.00
36828;BME280;22766;48.042;11.192;2023-05-16T05:14:03;94604.19;;;8.69;100.00
36828;BME280;22766;48.042;11.192;2023-05-16T05:16:29;94595.72;;;8.76;100.00
36828;BME280;22766;48.042;11.192;2023-05-16T05:18:56;94601.16;;;8.91;100.00
36828;BME280;22766;48.042;11.192;2023-05-16T05:21:23;94606.03;;;9.02;100.00
36828;BME280;22766;48.042;11.192;2023-05-16T05:23:50;94604.97;;;9.12;100.00
36828;BME280;22766;48.042;11.192;2023-05-16T05:26:17;94611.47;;;9.24;100.00
36828;BME280;22766;48.042;11.192;2023-05-16T05:28:44;94611.66;;;9.31;100.00
36828;BME280;22766;48.042;11.192;2023-05-16T05:31:22;94614.09;;;9.40;100.00
36828;BME280;22766;48.042;11.192;2023-05-16T05:33:50;94615.75;;;9.41;100.00
36828;BME280;22766;48.042;11.192;2023-05-16T05:36:16;94605.06;;;9.36;100.00
36828;BME280;22766;48.042;11.192;2023-05-16T05:38:43;94612.00;;;9.36;100.00
36828;BME280;22766;48.042;11.192;2023-05-16T05:41:09;94607.03;;;9.34;100.00
36828;BME280;22766;48.042;11.192;2023-05-16T05:43:37;94609.66;;;9.51;100.00
36828;BME280;22766;48.042;11.192;2023-05-16T05:46:04;94613.41;;;9.64;100.00
36828;BME280;22766;48.042;11.192;2023-05-16T05:48:31;94603.59;;;9.68;100.00
36828;BME280;22766;48.042;11.192;2023-05-16T05:50:58;94602.69;;;9.85;100.00
36828;BME280;22766;48.042;11.192;2023-05-16T05:53:24;94598.00;;;9.88;100.00
36828;BME280;22766;48.042;11.192;2023-05-16T05:55:51;94603.84;;;9.98;100.00
36828;BME280;22766;48.042;11.192;2023-05-16T05:58:20;94602.41;;;10.04;100.00
36828;BME280;22766;48.042;11.192;2023-05-16T06:00:46;94598.53;;;10.08;100.00
36828;BME280;22766;48.042;11.192;2023-05-16T06:03:13;94599.16;;;9.94;100.00
36828;BME280;22766;48.042;11.192;2023-05-16T06:05:40;94591.09;;;10.05;100.00
36828;BME280;22766;48.042;11.192;2023-05-16T06:08:07;94598.34;;;10.01;100.00
36828;BME280;22766;48.042;11.192;2023-05-16T06:10:34;94590.63;;;10.01;100.00
36828;BME280;22766;48.042;11.192;2023-05-16T06:13:00;94596.13;;;10.06;100.00
36828;BME280;22766;48.042;11.192;2023-05-16T06:15:27;94606.16;;;10.09;100.00
36828;BME280;22766;48.042;11.192;2023-05-16T06:17:54;94599.06;;;10.11;100.00
36828;BME280;22766;48.042;11.192;2023-05-16T06:20:21;94601.81;;;10.10;100.00
36828;BME280;22766;48.042;11.192;2023-05-16T06:22:47;94602.06;;;10.07;100.00
36828;BME280;22766;48.042;11.192;2023-05-16T06:25:14;94601.00;;;10.09;100.00
36828;BME280;22766;48.042;11.192;2023-05-16T06:27:41;94599.38;;;10.16;100.00
36828;BME280;22766;48.042;11.192;2023-05-16T06:30:08;94597.44;;;10.18;100.00
36828;BME280;22766;48.042;11.192;2023-05-16T06:32:35;94594.22;;;10.16;100.00
36828;BME280;22766;48.042;11.192;2023-05-16T06:35:02;94603.09;;;10.22;100.00
36828;BME280;22766;48.042;11.192;2023-05-16T06:37:29;94604.06;;;10.21;100.00
36828;BME280;22766;48.042;11.192;2023-05-16T06:39:55;94595.97;;;10.08;100.00
36828;BME280;22766;48.042;11.192;2023-05-16T06:42:22;94598.22;;;10.03;100.00
36828;BME280;22766;48.042;11.192;2023-05-16T06:44:49;94597.94;;;10.14;100.00
36828;BME280;22766;48.042;11.192;2023-05-16T06:47:16;94600.84;;;10.19;100.00
36828;BME280;22766;48.042;11.192;2023-05-16T06:49:43;94590.00;;;10.07;100.00
36828;BME280;22766;48.042;11.192;2023-05-16T06:52:10;94600.44;;;9.98;100.00
36828;BME280;22766;48.042;11.192;2023-05-16T06:54:37;94593.03;;;9.87;100.00
36828;BME280;22766;48.042;11.192;2023-05-16T06:57:03;94593.34;;;9.84;100.00
36828;BME280;22766;48.042;11.192;2023-05-16T06:59:30;94586.63;;;9.99;100.00
36828;BME280;22766;48.042;11.192;2023-05-16T07:01:58;94587.75;;;10.04;100.00
36828;BME280;22766;48.042;11.192;2023-05-16T07:04:24;94593.28;;;10.17;100.00
36828;BME280;22766;48.042;11.192;2023-05-16T07:06:51;94589.56;;;10.20;100.00
36828;BME280;22766;48.042;11.192;2023-05-16T07:09:19;94586.84;;;10.21;100.00
36828;BME280;22766;48.042;11.192;2023-05-16T07:11:46;94596.38;;;10.37;100.00
36828;BME280;22766;48.042;11.192;2023-05-16T07:14:13;94593.75;;;10.45;100.00
36828;BME280;22766;48.042;11.192;2023-05-16T07:16:39;94598.78;;;10.63;100.00
36828;BME280;22766;48.042;11.192;2023-05-16T07:19:06;94603.25;;;10.85;100.00
36828;BME280;22766;48.042;11.192;2023-05-16T07:21:34;94603.28;;;10.77;100.00
36828;BME280;22766;48.042;11.192;2023-05-16T07:24:00;94599.91;;;10.84;100.00
36828;BME280;22766;48.042;11.192;2023-05-16T07:26:27;94598.91;;;10.93;100.00
36828;BME280;22766;48.042;11.192;2023-05-16T07:28:54;94596.44;;;11.08;100.00
36828;BME280;22766;48.042;11.192;2023-05-16T07:31:21;94599.00;;;11.24;100.00
36828;BME280;22766;48.042;11.192;2023-05-16T07:33:48;94596.59;;;11.22;100.00
36828;BME280;22766;48.042;11.192;2023-05-16T07:36:14;94599.94;;;11.31;100.00
36828;BME280;22766;48.042;11.192;2023-05-16T07:38:43;94603.47;;;11.38;100.00
36828;BME280;22766;48.042;11.192;2023-05-16T07:41:10;94605.03;;;11.55;100.00
36828;BME280;22766;48.042;11.192;2023-05-16T07:43:37;94612.84;;;11.47;100.00
36828;BME280;22766;48.042;11.192;2023-05-16T07:46:04;94614.94;;;11.44;100.00
36828;BME280;22766;48.042;11.192;2023-05-16T07:48:31;94613.66;;;11.40;100.00
36828;BME280;22766;48.042;11.192;2023-05-16T07:50:57;94620.34;;;11.18;100.00
36828;BME280;22766;48.042;11.192;2023-05-16T07:53:25;94617.28;;;11.06;100.00
36828;BME280;22766;48.042;11.192;2023-05-16T07:55:52;94618.06;;;11.23;100.00
36828;BME280;22766;48.042;11.192;2023-05-16T07:58:19;94626.44;;;11.33;100.00
36828;BME280;22766;48.042;11.192;2023-05-16T08:00:45;94622.25;;;11.32;100.00
36828;BME280;22766;48.042;11.192;2023-05-16T08:03:12;94624.47;;;11.43;100.00
36828;BME280;22766;48.042;11.192;2023-05-16T08:05:39;94627.53;;;11.47;100.00
36828;BME280;22766;48.042;11.192;2023-05-16T08:08:06;94624.78;;;11.48;100.00
36828;BME280;22766;48.042;11.192;2023-05-16T08:10:33;94625.44;;;11.34;100.00
36828;BME280;22766;48.042;11.192;2023-05-16T08:12:59;94625.50;;;11.18;100.00
36828;BME280;22766;48.042;11.192;2023-05-16T08:15:26;94631.97;;;11.14;100.00
36828;BME280;22766;48.042;11.192;2023-05-16T08:17:56;94631.97;;;11.06;100.00
36828;BME280;22766;48.042;11.192;2023-05-16T08:20:24;94632.78;;;10.98;100.00
36828;BME280;22766;48.042;11.192;2023-05-16T08:22:52;94623.75;;;10.94;100.00
36828;BME280;22766;48.042;11.192;2023-05-16T08:25:19;94629.09;;;10.93;100.00
36828;BME280;22766;48.042;11.192;2023-05-16T08:27:48;94637.66;;;10.85;100.00
36828;BME280;22766;48.042;11.192;2023-05-16T08:30:15;94634.28;;;10.77;100.00
36828;BME280;22766;48.042;11.192;2023-05-16T08:32:42;94636.69;;;10.78;100.00
36828;BME280;22766;48.042;11.192;2023-05-16T08:35:09;94639.28;;;10.86;100.00
36828;BME280;22766;48.042;11.192;2023-05-16T08:37:36;94636.84;;;10.85;100.00
36828;BME280;22766;48.042;11.192;2023-05-16T08:40:06;94637.81;;;10.76;100.00
36828;BME280;22766;48.042;11.192;2023-05-16T08:42:36;94638.63;;;10.76;100.00
36828;BME280;22766;48.042;11.192;2023-05-16T08:45:03;94640.22;;;10.77;100.00
36828;BME280;22766;48.042;11.192;2023-05-16T08:47:31;94648.63;;;10.79;100.00
36828;BME280;22766;48.042;11.192;2023-05-16T08:49:59;94644.91;;;10.82;100.00
36828;BME280;22766;48.042;11.192;2023-05-16T08:52:30;94645.22;;;10.87;100.00
36828;BME280;22766;48.042;11.192;2023-05-16T08:55:02;94650.09;;;10.82;100.00
36828;BME280;22766;48.042;11.192;2023-05-16T08:57:37;94650.25;;;10.88;100.00
36828;BME280;22766;48.042;11.192;2023-05-16T09:00:06;94648.16;;;10.92;100.00
36828;BME280;22766;48.042;11.192;2023-05-16T09:02:41;94640.06;;;10.95;100.00
36828;BME280;22766;48.042;11.192;2023-05-16T09:05:11;94633.13;;;10.95;100.00
36828;BME280;22766;48.042;11.192;2023-05-16T09:07:40;94636.03;;;10.92;100.00
36828;BME280;22766;48.042;11.192;2023-05-16T09:10:07;94630.72;;;10.94;100.00
36828;BME280;22766;48.042;11.192;2023-05-16T09:12:35;94635.38;;;10.98;100.00
36828;BME280;22766;48.042;11.192;2023-05-16T09:15:03;94630.69;;;11.10;100.00
36828;BME280;22766;48.042;11.192;2023-05-16T09:17:38;94627.91;;;11.27;100.00
36828;BME280;22766;48.042;11.192;2023-05-16T09:20:18;94621.44;;;11.32;100.00
36828;BME280;22766;48.042;11.192;2023-05-16T09:22:56;94623.50;;;11.44;100.00
36828;BME280;22766;48.042;11.192;2023-05-16T09:25:26;94622.50;;;11.53;100.00
36828;BME280;22766;48.042;11.192;2023-05-16T09:27:58;94624.41;;;11.59;100.00
36828;BME280;22766;48.042;11.192;2023-05-16T09:30:31;94625.22;;;11.68;100.00
36828;BME280;22766;48.042;11.192;2023-05-16T09:32:59;94628.94;;;11.73;100.00
36828;BME280;22766;48.042;11.192;2023-05-16T09:35:26;94625.97;;;11.84;100.00
36828;BME280;22766;48.042;11.192;2023-05-16T09:37:56;94615.59;;;11.92;100.00
36828;BME280;22766;48.042;11.192;2023-05-16T09:40:22;94615.59;;;11.92;100.00
36828;BME280;22766;48.042;11.192;2023-05-16T09:43:03;94623.19;;;11.86;100.00
36828;BME280;22766;48.042;11.192;2023-05-16T09:45:31;94626.25;;;11.89;100.00
36828;BME280;22766;48.042;11.192;2023-05-16T09:48:07;94616.53;;;11.91;100.00
36828;BME280;22766;48.042;11.192;2023-05-16T09:50:35;94620.75;;;11.92;100.00
36828;BME280;22766;48.042;11.192;2023-05-16T09:53:03;94632.28;;;11.82;100.00
36828;BME280;22766;48.042;11.192;2023-05-16T09:55:31;94633.81;;;11.99;100.00
36828;BME280;22766;48.042;11.192;2023-05-16T09:57:57;94635.09;;;12.03;100.00
36828;BME280;22766;48.042;11.192;2023-05-16T10:00:29;94644.81;;;11.93;100.00
36828;BME280;22766;48.042;11.192;2023-05-16T10:02:57;94646.16;;;11.89;100.00
36828;BME280;22766;48.042;11.192;2023-05-16T10:05:29;94656.22;;;11.76;100.00
36828;BME280;22766;48.042;11.192;2023-05-16T10:07:56;94647.84;;;11.58;100.00
36828;BME280;22766;48.042;11.192;2023-05-16T10:10:26;94646.09;;;11.50;100.00
36828;BME280;22766;48.042;11.192;2023-05-16T10:12:57;94648.69;;;11.42;100.00
36828;BME280;22766;48.042;11.192;2023-05-16T10:15:26;94647.75;;;11.35;100.00
36828;BME280;22766;48.042;11.192;2023-05-16T10:17:55;94653.28;;;11.32;100.00
36828;BME280;22766;48.042;11.192;2023-05-16T10:20:25;94649.91;;;10.99;100.00
36828;BME280;22766;48.042;11.192;2023-05-16T10:22:54;94635.75;;;10.71;100.00
36828;BME280;22766;48.042;11.192;2023-05-16T10:27:49;94650.59;;;10.69;100.00
36828;BME280;22766;48.042;11.192;2023-05-16T10:30:16;94647.81;;;10.87;100.00
36828;BME280;22766;48.042;11.192;2023-05-16T10:32:45;94647.34;;;10.83;100.00
36828;BME280;22766;48.042;11.192;2023-05-16T10:35:12;94654.25;;;10.83;100.00
36828;BME280;22766;48.042;11.192;2023-05-16T10:37:42;94655.09;;;10.83;100.00
36828;BME280;22766;48.042;11.192;2023-05-16T10:40:10;94657.34;;;10.86;100.00
36828;BME280;22766;48.042;11.192;2023-05-16T10:42:37;94667.34;;;10.73;100.00
36828;BME280;22766;48.042;11.192;2023-05-16T10:45:19;94665.56;;;10.66;100.00
36828;BME280;22766;48.042;11.192;2023-05-16T10:47:59;94653.94;;;10.70;100.00
36828;BME280;22766;48.042;11.192;2023-05-16T10:50:45;94654.78;;;10.86;100.00
36828;BME280;22766;48.042;11.192;2023-05-16T10:53:36;94652.03;;;10.88;100.00
36828;BME280;22766;48.042;11.192;2023-05-16T11:06:23;94660.22;;;11.15;100.00
36828;BME280;22766;48.042;11.192;2023-05-16T11:14:36;94661.16;;;11.39;100.00
36828;BME280;22766;48.042;11.192;2023-05-16T11:17:10;94650.81;;;11.47;100.00
36828;BME280;22766;48.042;11.192;2023-05-16T11:19:44;94653.75;;;11.27;100.00
36828;BME280;22766;48.042;11.192;2023-05-16T11:22:12;94657.09;;;11.36;100.00
36828;BME280;22766;48.042;11.192;2023-05-16T11:25:05;94644.38;;;11.26;100.00
36828;BME280;22766;48.042;11.192;2023-05-16T11:27:33;94650.22;;;11.20;100.00
36828;BME280;22766;48.042;11.192;2023-05-16T11:30:09;94651.81;;;11.29;100.00
36828;BME280;22766;48.042;11.192;2023-05-16T11:32:38;94643.41;;;11.36;100.00
36828;BME280;22766;48.042;11.192;2023-05-16T11:35:07;94646.88;;;11.59;100.00
36828;BME280;22766;48.042;11.192;2023-05-16T11:37:38;94645.41;;;11.72;100.00
36828;BME280;22766;48.042;11.192;2023-05-16T11:40:06;94645.41;;;11.72;100.00
36828;BME280;22766;48.042;11.192;2023-05-16T11:42:36;94645.72;;;11.77;100.00
36828;BME280;22766;48.042;11.192;2023-05-16T11:47:35;94641.69;;;11.75;100.00
36828;BME280;22766;48.042;11.192;2023-05-16T11:50:05;94638.47;;;11.73;100.00
36828;BME280;22766;48.042;11.192;2023-05-16T11:52:33;94637.78;;;11.79;100.00
36828;BME280;22766;48.042;11.192;2023-05-16T11:55:00;94641.19;;;11.79;100.00
36828;BME280;22766;48.042;11.192;2023-05-16T11:57:27;94641.78;;;11.89;100.00
36828;BME280;22766;48.042;11.192;2023-05-16T11:59:53;94633.44;;;11.79;100.00
36828;BME280;22766;48.042;11.192;2023-05-16T12:02:20;94641.47;;;11.84;100.00
36828;BME280;22766;48.042;11.192;2023-05-16T12:04:47;94644.78;;;12.01;100.00
36828;BME280;22766;48.042;11.192;2023-05-16T12:07:16;94639.16;;;11.97;100.00
36828;BME280;22766;48.042;11.192;2023-05-16T12:09:51;94631.00;;;12.08;100.00
36828;BME280;22766;48.042;11.192;2023-05-16T12:12:22;94637.13;;;12.15;100.00
36828;BME280;22766;48.042;11.192;2023-05-16T12:14:48;94645.19;;;12.20;100.00
36828;BME280;22766;48.042;11.192;2023-05-16T12:17:15;94645.84;;;12.14;100.00
36828;BME280;22766;48.042;11.192;2023-05-16T12:19:42;94642.84;;;12.03;100.00
36828;BME280;22766;48.042;11.192;2023-05-16T12:22:16;94646.59;;;12.00;100.00
36828;BME280;22766;48.042;11.192;2023-05-16T12:24:43;94633.75;;;11.76;100.00
36828;BME280;22766;48.042;11.192;2023-05-16T12:27:10;94634.66;;;11.37;100.00
36828;BME280;22766;48.042;11.192;2023-05-16T12:29:38;94628.56;;;11.29;100.00
36828;BME280;22766;48.042;11.192;2023-05-16T12:32:06;94627.59;;;11.22;100.00
36828;BME280;22766;48.042;11.192;2023-05-16T12:34:33;94623.22;;;11.23;100.00
36828;BME280;22766;48.042;11.192;2023-05-16T12:37:00;94621.75;;;11.28;100.00
36828;BME280;22766;48.042;11.192;2023-05-16T12:39:36;94625.97;;;11.29;100.00
36828;BME280;22766;48.042;11.192;2023-05-16T12:42:06;94623.38;;;11.29;100.00
36828;BME280;22766;48.042;11.192;2023-05-16T12:44:34;94630.78;;;11.41;100.00
36828;BME280;22766;48.042;11.192;2023-05-16T12:47:01;94624.97;;;11.39;100.00
36828;BME280;22766;48.042;11.192;2023-05-16T12:49:28;94621.00;;;11.59;100.00
36828;BME280;22766;48.042;11.192;2023-05-16T12:51:55;94626.00;;;11.76;100.00
36828;BME280;22766;48.042;11.192;2023-05-16T12:54:23;94626.81;;;11.77;100.00
36828;BME280;22766;48.042;11.192;2023-05-16T12:56:50;94628.41;;;11.78;100.00
36828;BME280;22766;48.042;11.192;2023-05-16T12:59:17;94635.69;;;11.74;100.00
36828;BME280;22766;48.042;11.192;2023-05-16T13:01:45;94629.09;;;11.64;100.00
36828;BME280;22766;48.042;11.192;2023-05-16T13:04:12;94625.06;;;11.53;100.00
36828;BME280;22766;48.042;11.192;2023-05-16T13:06:45;94622.00;;;11.58;100.00
36828;BME280;22766;48.042;11.192;2023-05-16T13:09:25;94629.69;;;11.82;100.00
36828;BME280;22766;48.042;11.192;2023-05-16T13:11:57;94630.31;;;11.84;100.00
36828;BME280;22766;48.042;11.192;2023-05-16T13:14:25;94628.84;;;11.89;100.00
36828;BME280;22766;48.042;11.192;2023-05-16T13:16:52;94627.72;;;11.92;100.00
36828;BME280;22766;48.042;11.192;2023-05-16T13:19:18;94624.03;;;12.17;100.00